sensor_id;sensor_type;location;lat;lon;timestamp;pressure;altitude;pressure_sealevel;temperature;humidity
67013;BME280;53926;47.406;19.188;2022-09-20T00:01:26;100283.56;;;9.11;100.00
67013;BME280;53926;47.406;19.188;2022-09-20T00:03:56;100286.00;;;9.26;100.00
67013;BME280;53926;47.406;19.188;2022-09-20T00:06:28;100284.63;;;9.30;100.00
67013;BME280;53926;47.406;19.188;2022-09-20T00:08:56;100281.00;;;9.52;100.00
67013;BME280;53926;47.406;19.188;2022-09-20T00:11:25;100280.19;;;9.58;100.00
67013;BME280;53926;47.406;19.188;2022-09-20T00:13:54;100276.00;;;9.63;100.00
67013;BME280;53926;47.406;19.188;2022-09-20T00:16:40;100285.81;;;9.61;100.00
67013;BME280;53926;47.406;19.188;2022-09-20T00:19:11;100278.81;;;9.62;100.00
67013;BME280;53926;47.406;19.188;2022-09-20T00:21:40;100276.00;;;9.70;100.00
67013;BME280;53926;47.406;19.188;2022-09-20T00:24:09;100273.78;;;9.80;100.00
67013;BME280;53926;47.406;19.188;2022-09-20T00:26:36;100275.97;;;9.83;100.00
67013;BME280;53926;47.406;19.188;2022-09-20T00:29:03;100280.78;;;9.80;100.00
67013;BME280;53926;47.406;19.188;2022-09-20T00:31:30;100280.38;;;9.76;100.00
67013;BME280;53926;47.406;19.188;2022-09-20T00:33:57;100281.59;;;9.80;100.00
67013;BME280;53926;47.406;19.188;2022-09-20T00:36:43;100281.19;;;9.77;100.00
67013;BME280;53926;47.406;19.188;2022-09-20T00:39:12;100280.78;;;9.73;100.00
67013;BME280;53926;47.406;19.188;2022-09-20T00:41:39;100278.78;;;9.82;100.00
67013;BME280;53926;47.406;19.188;2022-09-20T00:47:17;100277.78;;;9.90;100.00
67013;BME280;53926;47.406;19.188;2022-09-20T00:49:48;100272.19;;;9.86;100.00
67013;BME280;53926;47.406;19.188;2022-09-20T00:52:17;100276.38;;;9.80;100.00
67013;BME280;53926;47.406;19.188;2022-09-20T00:54:44;100269.38;;;9.88;100.00
67013;BME280;53926;47.406;19.188;2022-09-20T00:57:11;100276.38;;;9.87;100.00
67013;BME280;53926;47.406;19.188;2022-09-20T00:59:40;100273.38;;;9.83;100.00
67013;BME280;53926;47.406;19.188;2022-09-20T01:02:13;100268.34;;;9.89;100.00
67013;BME280;53926;47.406;19.188;2022-09-20T01:04:42;100273.19;;;9.85;100.00
67013;BME280;53926;47.406;19.188;2022-09-20T01:07:12;100272.38;;;9.78;100.00
67013;BME280;53926;47.406;19.188;2022-09-20T01:09:40;100276.19;;;9.75;100.00
67013;BME280;53926;47.406;19.188;2022-09-20T01:12:13;100287.19;;;9.77;100.00
67013;BME280;53926;47.406;19.188;2022-09-20T01:14:43;100279.41;;;9.71;100.00
67013;BME280;53926;47.406;19.188;2022-09-20T01:17:12;100290.00;;;9.69;100.00
67013;BME280;53926;47.406;19.188;2022-09-20T01:20:13;100284.41;;;9.65;100.00
67013;BME280;53926;47.406;19.188;2022-09-20T01:28:24;100287.81;;;9.46;100.00
67013;BME280;53926;47.406;19.188;2022-09-20T01:31:05;100293.81;;;9.46;100.00
67013;BME280;53926;47.406;19.188;2022-09-20T01:36:04;100300.81;;;9.46;100.00
67013;BME280;53926;47.406;19.188;2022-09-20T01:41:24;100296.81;;;9.43;100.00
67013;BME280;53926;47.406;19.188;2022-09-20T01:44:11;100293.22;;;9.24;100.00
67013;BME280;53926;47.406;19.188;2022-09-20T01:46:44;100291.22;;;9.40;100.00
67013;BME280;53926;47.406;19.188;2022-09-20T01:50:36;100284.19;;;9.27;100.00
67013;BME280;53926;47.406;19.188;2022-09-20T01:55:49;100289.62;;;9.32;100.00
67013;BME280;53926;47.406;19.188;2022-09-20T02:04:58;100290.59;;;9.31;100.00
67013;BME280;53926;47.406;19.188;2022-09-20T02:07:46;100288.00;;;9.38;100.00
67013;BME280;53926;47.406;19.188;2022-09-20T02:13:08;100290.41;;;9.39;100.00
67013;BME280;53926;47.406;19.188;2022-09-20T02:33:05;100304.19;;;9.20;100.00
67013;BME280;53926;47.406;19.188;2022-09-20T02:57:49;100324.69;;;8.81;100.00
67013;BME280;53926;47.406;19.188;2022-09-20T03:00:23;100323.44;;;8.70;100.00
67013;BME280;53926;47.406;19.188;2022-09-20T03:03:07;100327.59;;;8.58;100.00
67013;BME280;53926;47.406;19.188;2022-09-20T03:05:51;100334.94;;;8.48;100.00
67013;BME280;53926;47.406;19.188;2022-09-20T03:08:37;100336.38;;;8.57;100.00
67013;BME280;53926;47.406;19.188;2022-09-20T03:11:18;100335.66;;;8.41;100.00
67013;BME280;53926;47.406;19.188;2022-09-20T03:14:12;100335.63;;;8.35;100.00
67013;BME280;53926;47.406;19.188;2022-09-20T03:17:01;100337.50;;;8.13;100.00
67013;BME280;53926;47.406;19.188;2022-09-20T03:22:45;100323.12;;;7.82;100.00
67013;BME280;53926;47.406;19.188;2022-09-20T03:36:32;100331.13;;;7.87;100.00
67013;BME280;53926;47.406;19.188;2022-09-20T04:12:26;100332.28;;;8.06;100.00
67013;BME280;53926;47.406;19.188;2022-09-20T04:20:57;100344.66;;;8.11;100.00
67013;BME280;53926;47.406;19.188;2022-09-20T04:26:00;100336.91;;;8.17;100.00
67013;BME280;53926;47.406;19.188;2022-09-20T04:28:49;100350.53;;;8.26;100.00
67013;BME280;53926;47.406;19.188;2022-09-20T04:31:22;100347.88;;;8.13;100.00
67013;BME280;53926;47.406;19.188;2022-09-20T04:33:54;100345.66;;;8.10;100.00
67013;BME280;53926;47.406;19.188;2022-09-20T04:36:27;100350.84;;;8.10;100.00
67013;BME280;53926;47.406;19.188;2022-09-20T04:58:48;100358.72;;;8.23;100.00
67013;BME280;53926;47.406;19.188;2022-09-20T05:12:14;100359.25;;;8.47;100.00
67013;BME280;53926;47.406;19.188;2022-09-20T05:26:11;100367.88;;;8.95;100.00
67013;BME280;53926;47.406;19.188;2022-09-20T05:29:20;100359.53;;;9.20;100.00
67013;BME280;53926;47.406;19.188;2022-09-20T05:37:09;100371.00;;;9.59;100.00
67013;BME280;53926;47.406;19.188;2022-09-20T05:48:26;100374.78;;;10.03;100.00
67013;BME280;53926;47.406;19.188;2022-09-20T05:51:03;100378.78;;;10.26;100.00
67013;BME280;53926;47.406;19.188;2022-09-20T06:02:02;100371.97;;;10.97;100.00
67013;BME280;53926;47.406;19.188;2022-09-20T06:04:44;100397.09;;;11.23;97.50
67013;BME280;53926;47.406;19.188;2022-09-20T06:10:19;100399.91;;;11.22;98.56
67013;BME280;53926;47.406;19.188;2022-09-20T06:15:59;100403.03;;;10.99;99.49
67013;BME280;53926;47.406;19.188;2022-09-20T06:18:50;100409.09;;;10.86;100.00
67013;BME280;53926;47.406;19.188;2022-09-20T06:21:49;100409.00;;;11.06;100.00
67013;BME280;53926;47.406;19.188;2022-09-20T06:24:28;100413.41;;;11.12;99.36
67013;BME280;53926;47.406;19.188;2022-09-20T06:27:02;100408.34;;;11.17;99.38
67013;BME280;53926;47.406;19.188;2022-09-20T06:29:32;100406.03;;;11.98;97.93
67013;BME280;53926;47.406;19.188;2022-09-20T06:32:01;100407.41;;;12.44;93.50
67013;BME280;53926;47.406;19.188;2022-09-20T06:34:27;100408.97;;;13.31;91.43
67013;BME280;53926;47.406;19.188;2022-09-20T06:37:03;100410.56;;;15.10;81.71
67013;BME280;53926;47.406;19.188;2022-09-20T06:40:01;100408.53;;;15.91;75.62
67013;BME280;53926;47.406;19.188;2022-09-20T06:42:52;100400.97;;;17.60;67.70
67013;BME280;53926;47.406;19.188;2022-09-20T06:45:20;100396.31;;;17.67;67.30
67013;BME280;53926;47.406;19.188;2022-09-20T06:47:46;100399.00;;;18.15;64.75
67013;BME280;53926;47.406;19.188;2022-09-20T06:50:14;100402.94;;;18.61;62.47
67013;BME280;53926;47.406;19.188;2022-09-20T06:52:43;100390.16;;;19.31;61.03
67013;BME280;53926;47.406;19.188;2022-09-20T06:55:20;100396.87;;;18.70;59.52
67013;BME280;53926;47.406;19.188;2022-09-20T06:57:54;100401.62;;;18.68;60.71
67013;BME280;53926;47.406;19.188;2022-09-20T07:00:21;100402.44;;;18.16;62.35
67013;BME280;53926;47.406;19.188;2022-09-20T07:02:48;100392.75;;;18.90;60.77
67013;BME280;53926;47.406;19.188;2022-09-20T07:05:16;100397.41;;;18.09;62.55
67013;BME280;53926;47.406;19.188;2022-09-20T07:07:43;100397.72;;;18.81;61.17
67013;BME280;53926;47.406;19.188;2022-09-20T07:10:10;100396.50;;;18.41;60.79
67013;BME280;53926;47.406;19.188;2022-09-20T07:12:37;100405.16;;;18.31;62.17
67013;BME280;53926;47.406;19.188;2022-09-20T07:15:04;100404.59;;;17.49;64.57
67013;BME280;53926;47.406;19.188;2022-09-20T07:17:31;100410.41;;;16.96;64.94
67013;BME280;53926;47.406;19.188;2022-09-20T07:19:59;100419.53;;;15.88;69.86
67013;BME280;53926;47.406;19.188;2022-09-20T07:22:26;100421.69;;;16.31;68.09
67013;BME280;53926;47.406;19.188;2022-09-20T07:24:53;100423.97;;;16.66;69.80
67013;BME280;53926;47.406;19.188;2022-09-20T07:27:20;100425.97;;;16.37;69.07
67013;BME280;53926;47.406;19.188;2022-09-20T07:29:47;100423.94;;;16.22;67.97
67013;BME280;53926;47.406;19.188;2022-09-20T07:32:13;100437.06;;;15.25;71.47
67013;BME280;53926;47.406;19.188;2022-09-20T07:34:40;100429.63;;;15.80;69.41
67013;BME280;53926;47.406;19.188;2022-09-20T07:37:07;100430.22;;;15.24;70.22
67013;BME280;53926;47.406;19.188;2022-09-20T07:39:33;100438.66;;;14.97;72.11
67013;BME280;53926;47.406;19.188;2022-09-20T07:42:00;100432.91;;;15.12;71.42
67013;BME280;53926;47.406;19.188;2022-09-20T07:44:31;100426.59;;;15.25;70.79
67013;BME280;53926;47.406;19.188;2022-09-20T07:46:58;100429.87;;;15.49;72.46
67013;BME280;53926;47.406;19.188;2022-09-20T07:49:27;100434.22;;;15.27;73.66
67013;BME280;53926;47.406;19.188;2022-09-20T07:51:55;100446.03;;;15.58;73.73
67013;BME280;53926;47.406;19.188;2022-09-20T07:54:22;100447.50;;;15.37;72.77
67013;BME280;53926;47.406;19.188;2022-09-20T07:56:49;100441.16;;;15.96;70.90
67013;BME280;53926;47.406;19.188;2022-09-20T07:59:15;100441.47;;;15.82;70.20
67013;BME280;53926;47.406;19.188;2022-09-20T08:01:42;100443.78;;;16.13;69.52
67013;BME280;53926;47.406;19.188;2022-09-20T08:04:09;100453.28;;;15.22;71.33
67013;BME280;53926;47.406;19.188;2022-09-20T08:06:41;100447.88;;;15.29;72.26
67013;BME280;53926;47.406;19.188;2022-09-20T08:09:08;100449.38;;;15.70;70.76
67013;BME280;53926;47.406;19.188;2022-09-20T08:11:37;100452.97;;;15.64;71.10
67013;BME280;53926;47.406;19.188;2022-09-20T08:14:05;100456.72;;;15.11;71.46
67013;BME280;53926;47.406;19.188;2022-09-20T08:16:42;100442.97;;;15.78;70.51
67013;BME280;53926;47.406;19.188;2022-09-20T08:19:14;100443.72;;;15.62;70.05
67013;BME280;53926;47.406;19.188;2022-09-20T08:21:41;100453.59;;;15.26;73.07
67013;BME280;53926;47.406;19.188;2022-09-20T08:24:08;100456.59;;;15.46;71.41
67013;BME280;53926;47.406;19.188;2022-09-20T08:26:34;100448.72;;;15.46;72.61
67013;BME280;53926;47.406;19.188;2022-09-20T08:29:02;100451.91;;;15.19;73.34
67013;BME280;53926;47.406;19.188;2022-09-20T08:31:33;100451.28;;;15.58;71.74
67013;BME280;53926;47.406;19.188;2022-09-20T08:34:04;100463.16;;;15.32;71.89
67013;BME280;53926;47.406;19.188;2022-09-20T08:36:34;100460.63;;;15.08;71.15
67013;BME280;53926;47.406;19.188;2022-09-20T08:39:03;100451.34;;;14.77;73.98
67013;BME280;53926;47.406;19.188;2022-09-20T08:44:50;100449.19;;;15.43;68.63
67013;BME280;53926;47.406;19.188;2022-09-20T08:47:27;100445.44;;;16.19;69.91
67013;BME280;53926;47.406;19.188;2022-09-20T08:49:55;100458.94;;;16.27;66.95
67013;BME280;53926;47.406;19.188;2022-09-20T08:52:32;100448.81;;;15.51;nan
67013;BME280;53926;47.406;19.188;2022-09-20T08:55:11;100461.34;;;15.78;69.43
67013;BME280;53926;47.406;19.188;2022-09-20T08:57:38;100454.31;;;15.50;69.40
67013;BME280;53926;47.406;19.188;2022-09-20T09:00:05;100457.03;;;15.72;69.35
67013;BME280;53926;47.406;19.188;2022-09-20T09:02:32;100454.28;;;16.30;66.20
67013;BME280;53926;47.406;19.188;2022-09-20T09:05:02;100449.53;;;16.09;67.86
67013;BME280;53926;47.406;19.188;2022-09-20T09:07:31;100465.97;;;15.42;70.95
67013;BME280;53926;47.406;19.188;2022-09-20T09:09:58;100455.72;;;15.41;71.70
67013;BME280;53926;47.406;19.188;2022-09-20T09:12:28;100462.91;;;15.62;70.09
67013;BME280;53926;47.406;19.188;2022-09-20T09:14:56;100459.38;;;16.58;65.70
67013;BME280;53926;47.406;19.188;2022-09-20T09:17:26;100457.41;;;16.71;64.81
67013;BME280;53926;47.406;19.188;2022-09-20T09:19:57;100459.12;;;16.99;66.61
67013;BME280;53926;47.406;19.188;2022-09-20T09:22:42;100451.38;;;16.92;61.54
67013;BME280;53926;47.406;19.188;2022-09-20T09:30:35;100450.56;;;15.63;67.12
67013;BME280;53926;47.406;19.188;2022-09-20T09:35:53;100448.31;;;16.17;66.73
67013;BME280;53926;47.406;19.188;2022-09-20T09:38:23;100445.00;;;15.88;65.40
67013;BME280;53926;47.406;19.188;2022-09-20T09:40:51;100443.78;;;15.33;68.59
67013;BME280;53926;47.406;19.188;2022-09-20T09:43:20;100446.22;;;15.68;67.05
67013;BME280;53926;47.406;19.188;2022-09-20T09:45:49;100439.38;;;16.18;66.18
67013;BME280;53926;47.406;19.188;2022-09-20T09:48:27;100447.84;;;16.20;64.17
67013;BME280;53926;47.406;19.188;2022-09-20T09:51:10;100440.69;;;15.99;66.33
67013;BME280;53926;47.406;19.188;2022-09-20T09:53:38;100444.91;;;15.83;65.51
67013;BME280;53926;47.406;19.188;2022-09-20T09:56:15;100441.78;;;15.40;67.65
67013;BME280;53926;47.406;19.188;2022-09-20T10:02:01;100437.06;;;15.71;68.74
67013;BME280;53926;47.406;19.188;2022-09-20T10:07:43;100437.34;;;15.86;66.00
67013;BME280;53926;47.406;19.188;2022-09-20T10:18:00;100440.84;;;15.92;65.49
67013;BME280;53926;47.406;19.188;2022-09-20T10:20:34;100433.13;;;16.41;63.87
67013;BME280;53926;47.406;19.188;2022-09-20T10:26:40;100445.41;;;16.36;63.63
67013;BME280;53926;47.406;19.188;2022-09-20T10:36:59;100434.41;;;15.71;64.35
67013;BME280;53926;47.406;19.188;2022-09-20T10:47:25;100421.44;;;17.21;62.05
67013;BME280;53926;47.406;19.188;2022-09-20T10:50:02;100418.91;;;16.59;61.03
67013;BME280;53926;47.406;19.188;2022-09-20T10:52:48;100422.12;;;17.11;61.82
67013;BME280;53926;47.406;19.188;2022-09-20T11:01:15;100428.03;;;17.83;59.74
67013;BME280;53926;47.406;19.188;2022-09-20T11:08:46;100411.81;;;19.69;54.69
67013;BME280;53926;47.406;19.188;2022-09-20T11:11:21;100416.03;;;20.06;51.37
67013;BME280;53926;47.406;19.188;2022-09-20T11:14:09;100410.16;;;20.95;51.25
67013;BME280;53926;47.406;19.188;2022-09-20T11:16:43;100410.81;;;20.61;47.74
67013;BME280;53926;47.406;19.188;2022-09-20T11:19:29;100416.75;;;20.22;50.34
67013;BME280;53926;47.406;19.188;2022-09-20T11:24:40;100415.72;;;19.05;53.06
67013;BME280;53926;47.406;19.188;2022-09-20T11:27:28;100411.25;;;19.10;54.36
67013;BME280;53926;47.406;19.188;2022-09-20T11:30:04;100418.88;;;17.91;54.76
67013;BME280;53926;47.406;19.188;2022-09-20T11:35:16;100398.84;;;16.97;60.32
67013;BME280;53926;47.406;19.188;2022-09-20T11:37:51;100402.75;;;18.30;54.98
67013;BME280;53926;47.406;19.188;2022-09-20T11:42:58;100398.06;;;18.37;55.32
67013;BME280;53926;47.406;19.188;2022-09-20T11:45:28;100392.53;;;18.33;55.89
67013;BME280;53926;47.406;19.188;2022-09-20T11:48:01;100396.72;;;17.54;58.27
67013;BME280;53926;47.406;19.188;2022-09-20T11:56:16;100386.25;;;16.33;65.48
67013;BME280;53926;47.406;19.188;2022-09-20T11:58:48;100392.78;;;15.91;68.63
67013;BME280;53926;47.406;19.188;2022-09-20T12:01:56;100398.06;;;15.46;75.23
67013;BME280;53926;47.406;19.188;2022-09-20T12:04:22;100390.00;;;14.37;81.64
67013;BME280;53926;47.406;19.188;2022-09-20T12:07:23;100395.47;;;14.12;86.50
67013;BME280;53926;47.406;19.188;2022-09-20T12:09:57;100390.13;;;14.19;87.97
67013;BME280;53926;47.406;19.188;2022-09-20T12:12:40;100387.47;;;15.24;91.92
67013;BME280;53926;47.406;19.188;2022-09-20T12:15:25;100381.62;;;16.40;89.71
67013;BME280;53926;47.406;19.188;2022-09-20T12:28:51;100368.22;;;19.00;67.46
67013;BME280;53926;47.406;19.188;2022-09-20T12:36:26;100360.53;;;18.14;61.85
67013;BME280;53926;47.406;19.188;2022-09-20T12:38:59;100377.84;;;17.30;64.87
67013;BME280;53926;47.406;19.188;2022-09-20T12:41:26;100386.97;;;16.29;70.34
67013;BME280;53926;47.406;19.188;2022-09-20T12:44:02;100377.62;;;15.65;72.40
67013;BME280;53926;47.406;19.188;2022-09-20T12:46:34;100376.84;;;15.47;72.57
67013;BME280;53926;47.406;19.188;2022-09-20T12:58:03;100354.56;;;16.01;76.52
67013;BME280;53926;47.406;19.188;2022-09-20T13:05:45;100354.00;;;17.79;63.70
67013;BME280;53926;47.406;19.188;2022-09-20T13:08:18;100350.41;;;18.49;60.71
67013;BME280;53926;47.406;19.188;2022-09-20T13:11:33;100355.16;;;18.47;60.17
67013;BME280;53926;47.406;19.188;2022-09-20T13:13:43;100354.47;;;18.14;62.00
67013;BME280;53926;47.406;19.188;2022-09-20T13:17:05;100352.56;;;17.66;64.09
67013;BME280;53926;47.406;19.188;2022-09-20T13:19:19;100345.03;;;17.10;63.44
67013;BME280;53926;47.406;19.188;2022-09-20T13:24:28;100343.28;;;16.67;66.64
67013;BME280;53926;47.406;19.188;2022-09-20T13:27:01;100352.87;;;16.34;68.16
67013;BME280;53926;47.406;19.188;2022-09-20T13:29:36;100358.06;;;16.29;68.29
67013;BME280;53926;47.406;19.188;2022-09-20T13:32:26;100354.72;;;16.33;65.74
67013;BME280;53926;47.406;19.188;2022-09-20T13:35:06;100353.56;;;16.24;67.86
67013;BME280;53926;47.406;19.188;2022-09-20T13:37:35;100366.44;;;16.25;63.87
67013;BME280;53926;47.406;19.188;2022-09-20T13:40:03;100362.72;;;16.21;64.92
67013;BME280;53926;47.406;19.188;2022-09-20T13:42:32;100363.31;;;16.06;63.64
67013;BME280;53926;47.406;19.188;2022-09-20T13:45:02;100357.12;;;15.96;66.26
67013;BME280;53926;47.406;19.188;2022-09-20T13:47:31;100356.94;;;16.02;66.65
67013;BME280;53926;47.406;19.188;2022-09-20T13:50:28;100364.50;;;16.38;66.05
67013;BME280;53926;47.406;19.188;2022-09-20T13:53:00;100366.91;;;16.00;68.30
67013;BME280;53926;47.406;19.188;2022-09-20T13:55:36;100364.09;;;16.07;65.86
67013;BME280;53926;47.406;19.188;2022-09-20T13:58:24;100363.88;;;15.91;68.12
67013;BME280;53926;47.406;19.188;2022-09-20T14:03:47;100376.13;;;15.52;65.96
67013;BME280;53926;47.406;19.188;2022-09-20T14:06:14;100376.44;;;15.55;66.57
67013;BME280;53926;47.406;19.188;2022-09-20T14:08:46;100380.41;;;15.41;65.42
67013;BME280;53926;47.406;19.188;2022-09-20T14:11:15;100381.75;;;15.27;68.61
67013;BME280;53926;47.406;19.188;2022-09-20T14:13:46;100376.75;;;15.42;67.09
67013;BME280;53926;47.406;19.188;2022-09-20T14:16:15;100376.66;;;15.54;68.09
67013;BME280;53926;47.406;19.188;2022-09-20T14:18:44;100371.75;;;15.41;65.90
67013;BME280;53926;47.406;19.188;2022-09-20T14:21:16;100368.06;;;15.42;66.45
67013;BME280;53926;47.406;19.188;2022-09-20T14:23:49;100367.69;;;16.01;66.95
67013;BME280;53926;47.406;19.188;2022-09-20T14:28:46;100369.41;;;16.51;64.37
67013;BME280;53926;47.406;19.188;2022-09-20T14:31:16;100372.28;;;16.50;64.64
67013;BME280;53926;47.406;19.188;2022-09-20T14:33:47;100365.91;;;16.90;64.52
67013;BME280;53926;47.406;19.188;2022-09-20T14:36:25;100369.09;;;16.70;63.53
67013;BME280;53926;47.406;19.188;2022-09-20T14:39:01;100369.03;;;16.20;62.34
67013;BME280;53926;47.406;19.188;2022-09-20T14:41:38;100362.94;;;15.98;61.00
67013;BME280;53926;47.406;19.188;2022-09-20T14:44:16;100370.66;;;15.87;59.88
67013;BME280;53926;47.406;19.188;2022-09-20T14:46:46;100371.72;;;15.86;61.15
67013;BME280;53926;47.406;19.188;2022-09-20T14:51:47;100375.87;;;15.36;62.86
67013;BME280;53926;47.406;19.188;2022-09-20T14:54:26;100383.88;;;15.13;64.19
67013;BME280;53926;47.406;19.188;2022-09-20T14:56:53;100388.19;;;15.19;64.29
67013;BME280;53926;47.406;19.188;2022-09-20T14:59:25;100395.34;;;15.24;64.72
67013;BME280;53926;47.406;19.188;2022-09-20T15:02:13;100390.91;;;15.41;63.10
67013;BME280;53926;47.406;19.188;2022-09-20T15:04:50;100389.72;;;15.49;63.50
67013;BME280;53926;47.406;19.188;2022-09-20T15:07:19;100392.09;;;15.33;62.01
67013;BME280;53926;47.406;19.188;2022-09-20T15:09:46;100400.94;;;15.44;63.81
67013;BME280;53926;47.406;19.188;2022-09-20T15:12:17;100400.22;;;15.66;61.55
67013;BME280;53926;47.406;19.188;2022-09-20T15:14:45;100398.62;;;15.48;60.19
67013;BME280;53926;47.406;19.188;2022-09-20T15:17:17;100393.22;;;15.54;61.63
67013;BME280;53926;47.406;19.188;2022-09-20T15:19:44;100389.06;;;15.42;59.92
67013;BME280;53926;47.406;19.188;2022-09-20T15:22:12;100395.66;;;15.27;60.68
67013;BME280;53926;47.406;19.188;2022-09-20T15:24:39;100405.16;;;14.88;61.56
67013;BME280;53926;47.406;19.188;2022-09-20T15:27:06;100403.63;;;14.75;61.88
67013;BME280;53926;47.406;19.188;2022-09-20T15:29:34;100403.41;;;14.64;63.52
67013;BME280;53926;47.406;19.188;2022-09-20T15:32:01;100408.06;;;14.51;62.82
67013;BME280;53926;47.406;19.188;2022-09-20T15:34:28;100411.06;;;14.42;63.84
67013;BME280;53926;47.406;19.188;2022-09-20T15:36:54;100407.31;;;14.15;64.90
67013;BME280;53926;47.406;19.188;2022-09-20T15:39:21;100410.84;;;14.20;66.10
67013;BME280;53926;47.406;19.188;2022-09-20T15:41:51;100419.00;;;13.76;67.42
67013;BME280;53926;47.406;19.188;2022-09-20T15:44:17;100423.22;;;13.77;67.94
67013;BME280;53926;47.406;19.188;2022-09-20T15:46:44;100433.25;;;13.81;68.02
67013;BME280;53926;47.406;19.188;2022-09-20T15:49:11;100426.19;;;13.69;67.82
67013;BME280;53926;47.406;19.188;2022-09-20T15:51:38;100424.69;;;13.73;69.41
67013;BME280;53926;47.406;19.188;2022-09-20T15:54:05;100435.75;;;13.75;69.98
67013;BME280;53926;47.406;19.188;2022-09-20T15:56:35;100431.88;;;13.66;71.14
67013;BME280;53926;47.406;19.188;2022-09-20T15:59:04;100439.22;;;13.57;74.04
67013;BME280;53926;47.406;19.188;2022-09-20T16:01:34;100449.53;;;13.40;74.60
67013;BME280;53926;47.406;19.188;2022-09-20T16:04:05;100445.19;;;13.34;74.68
67013;BME280;53926;47.406;19.188;2022-09-20T16:06:33;100448.00;;;13.33;74.02
67013;BME280;53926;47.406;19.188;2022-09-20T16:09:00;100448.59;;;13.16;74.28
67013;BME280;53926;47.406;19.188;2022-09-20T16:11:26;100449.81;;;13.14;72.83
67013;BME280;53926;47.406;19.188;2022-09-20T16:13:54;100451.66;;;12.95;74.34
67013;BME280;53926;47.406;19.188;2022-09-20T16:16:23;100458.56;;;12.89;73.52
67013;BME280;53926;47.406;19.188;2022-09-20T16:18:50;100448.75;;;12.84;74.85
67013;BME280;53926;47.406;19.188;2022-09-20T16:21:37;100461.78;;;12.73;76.89
67013;BME280;53926;47.406;19.188;2022-09-20T16:24:08;100453.56;;;12.69;77.83
67013;BME280;53926;47.406;19.188;2022-09-20T16:26:35;100461.03;;;12.65;78.57
67013;BME280;53926;47.406;19.188;2022-09-20T16:29:02;100458.94;;;12.56;79.43
67013;BME280;53926;47.406;19.188;2022-09-20T16:31:41;100455.50;;;12.55;81.23
67013;BME280;53926;47.406;19.188;2022-09-20T16:34:26;100452.75;;;12.50;81.05
67013;BME280;53926;47.406;19.188;2022-09-20T16:37:19;100448.53;;;12.49;82.16
67013;BME280;53926;47.406;19.188;2022-09-20T16:39:44;100450.25;;;12.37;82.92
67013;BME280;53926;47.406;19.188;2022-09-20T17:19:18;100470.22;;;11.35;98.36
67013;BME280;53926;47.406;19.188;2022-09-20T17:21:47;100472.44;;;11.32;98.08
67013;BME280;53926;47.406;19.188;2022-09-20T17:24:20;100463.47;;;11.21;98.27
67013;BME280;53926;47.406;19.188;2022-09-20T17:26:48;100470.09;;;11.17;98.43
67013;BME280;53926;47.406;19.188;2022-09-20T17:29:17;100468.13;;;11.12;98.16
67013;BME280;53926;47.406;19.188;2022-09-20T17:31:45;100482.38;;;11.03;98.41
67013;BME280;53926;47.406;19.188;2022-09-20T17:34:19;100473.56;;;10.97;97.23
67013;BME280;53926;47.406;19.188;2022-09-20T17:36:48;100480.41;;;10.98;97.06
67013;BME280;53926;47.406;19.188;2022-09-20T17:39:16;100483.00;;;10.91;97.65
67013;BME280;53926;47.406;19.188;2022-09-20T17:41:45;100475.03;;;10.80;98.73
67013;BME280;53926;47.406;19.188;2022-09-20T17:44:13;100476.81;;;10.79;98.69
67013;BME280;53926;47.406;19.188;2022-09-20T17:46:41;100481.06;;;10.73;98.91
67013;BME280;53926;47.406;19.188;2022-09-20T17:49:13;100488.28;;;10.78;99.02
67013;BME280;53926;47.406;19.188;2022-09-20T17:51:42;100491.88;;;10.64;100.00
67013;BME280;53926;47.406;19.188;2022-09-20T17:54:10;100496.53;;;10.55;100.00
67013;BME280;53926;47.406;19.188;2022-09-20T17:56:41;100499.31;;;10.47;100.00
67013;BME280;53926;47.406;19.188;2022-09-20T17:59:09;100495.69;;;10.41;100.00
67013;BME280;53926;47.406;19.188;2022-09-20T18:01:37;100498.31;;;10.34;100.00
67013;BME280;53926;47.406;19.188;2022-09-20T18:04:05;100497.31;;;10.35;100.00
67013;BME280;53926;47.406;19.188;2022-09-20T18:09:05;100501.28;;;10.25;100.00
67013;BME280;53926;47.406;19.188;2022-09-20T18:11:37;100504.69;;;10.32;100.00
67013;BME280;53926;47.406;19.188;2022-09-20T18:14:05;100505.28;;;10.27;100.00
67013;BME280;53926;47.406;19.188;2022-09-20T18:16:33;100510.53;;;10.34;100.00
67013;BME280;53926;47.406;19.188;2022-09-20T18:19:00;100515.34;;;10.37;100.00
67013;BME280;53926;47.406;19.188;2022-09-20T18:21:29;100518.75;;;10.37;100.00
67013;BME280;53926;47.406;19.188;2022-09-20T18:23:56;100516.13;;;10.51;100.00
67013;BME280;53926;47.406;19.188;2022-09-20T18:26:27;100515.72;;;10.61;99.48
67013;BME280;53926;47.406;19.188;2022-09-20T18:29:09;100518.31;;;10.61;98.55
67013;BME280;53926;47.406;19.188;2022-09-20T18:31:40;100519.72;;;10.63;97.18
67013;BME280;53926;47.406;19.188;2022-09-20T18:34:15;100525.56;;;10.59;97.92
67013;BME280;53926;47.406;19.188;2022-09-20T18:36:45;100524.94;;;10.63;97.11
67013;BME280;53926;47.406;19.188;2022-09-20T18:39:13;100530.53;;;10.67;97.14
67013;BME280;53926;47.406;19.188;2022-09-20T18:41:40;100521.75;;;10.48;97.80
67013;BME280;53926;47.406;19.188;2022-09-20T18:44:10;100528.16;;;10.38;97.98
67013;BME280;53926;47.406;19.188;2022-09-20T18:46:39;100536.16;;;10.37;98.68
67013;BME280;53926;47.406;19.188;2022-09-20T18:49:08;100533.56;;;10.44;97.94
67013;BME280;53926;47.406;19.188;2022-09-20T18:51:35;100534.34;;;10.31;99.12